sensor_id;sensor_type;location;lat;lon;timestamp;temperature;humidity
22249;DHT22;67538;52.180;5.646;2023-09-30T00:00:02;10.80;99.90
22249;DHT22;67538;52.180;5.646;2023-09-30T00:02:29;10.80;99.90
22249;DHT22;67538;52.180;5.646;2023-09-30T00:04:56;10.80;99.90
22249;DHT22;67538;52.180;5.646;2023-09-30T00:07:25;10.80;99.90
22249;DHT22;67538;52.180;5.646;2023-09-30T00:09:52;10.90;99.90
22249;DHT22;67538;52.180;5.646;2023-09-30T00:12:19;10.90;99.90
22249;DHT22;67538;52.180;5.646;2023-09-30T00:14:46;10.80;99.90
22249;DHT22;67538;52.180;5.646;2023-09-30T00:17:14;10.70;99.90
22249;DHT22;67538;52.180;5.646;2023-09-30T00:19:41;10.70;99.90
22249;DHT22;67538;52.180;5.646;2023-09-30T00:22:08;10.80;99.90
22249;DHT22;67538;52.180;5.646;2023-09-30T00:24:37;10.90;99.90
22249;DHT22;67538;52.180;5.646;2023-09-30T00:27:04;10.90;99.90
22249;DHT22;67538;52.180;5.646;2023-09-30T00:29:31;10.90;99.90
22249;DHT22;67538;52.180;5.646;2023-09-30T00:31:59;10.90;99.90
22249;DHT22;67538;52.180;5.646;2023-09-30T00:34:26;10.90;99.90
22249;DHT22;67538;52.180;5.646;2023-09-30T00:36:53;10.80;99.90
22249;DHT22;67538;52.180;5.646;2023-09-30T00:39:20;10.70;99.90
22249;DHT22;67538;52.180;5.646;2023-09-30T00:41:49;10.50;99.90
22249;DHT22;67538;52.180;5.646;2023-09-30T00:44:16;10.60;99.90
22249;DHT22;67538;52.180;5.646;2023-09-30T00:46:44;10.50;99.90
22249;DHT22;67538;52.180;5.646;2023-09-30T00:49:14;10.50;99.90
22249;DHT22;67538;52.180;5.646;2023-09-30T00:51:43;10.40;99.90
22249;DHT22;67538;52.180;5.646;2023-09-30T00:54:10;10.30;99.90
22249;DHT22;67538;52.180;5.646;2023-09-30T00:56:43;10.20;99.90
22249;DHT22;67538;52.180;5.646;2023-09-30T00:59:12;10.20;99.90
22249;DHT22;67538;52.180;5.646;2023-09-30T01:01:40;10.30;99.90
22249;DHT22;67538;52.180;5.646;2023-09-30T01:04:07;10.30;99.90
22249;DHT22;67538;52.180;5.646;2023-09-30T01:06:35;10.30;99.90
22249;DHT22;67538;52.180;5.646;2023-09-30T01:09:02;10.40;99.90
22249;DHT22;67538;52.180;5.646;2023-09-30T01:11:30;10.30;99.90
22249;DHT22;67538;52.180;5.646;2023-09-30T01:13:57;10.40;99.90
22249;DHT22;67538;52.180;5.646;2023-09-30T01:16:25;10.40;99.90
22249;DHT22;67538;52.180;5.646;2023-09-30T01:18:52;10.40;99.90
22249;DHT22;67538;52.180;5.646;2023-09-30T01:21:20;10.40;99.90
22249;DHT22;67538;52.180;5.646;2023-09-30T01:23:48;10.30;99.90
22249;DHT22;67538;52.180;5.646;2023-09-30T01:26:16;10.10;99.90
22249;DHT22;67538;52.180;5.646;2023-09-30T01:28:43;10.00;99.90
22249;DHT22;67538;52.180;5.646;2023-09-30T01:31:10;9.90;99.90
22249;DHT22;67538;52.180;5.646;2023-09-30T01:33:37;9.70;99.90
22249;DHT22;67538;52.180;5.646;2023-09-30T01:36:05;9.60;99.90
22249;DHT22;67538;52.180;5.646;2023-09-30T01:38:32;9.70;99.90
22249;DHT22;67538;52.180;5.646;2023-09-30T01:41:00;9.80;99.90
22249;DHT22;67538;52.180;5.646;2023-09-30T01:43:28;9.90;99.90
22249;DHT22;67538;52.180;5.646;2023-09-30T01:45:55;9.90;99.90
22249;DHT22;67538;52.180;5.646;2023-09-30T01:48:23;10.00;99.90
22249;DHT22;67538;52.180;5.646;2023-09-30T01:50:50;10.00;99.90
22249;DHT22;67538;52.180;5.646;2023-09-30T01:53:17;10.00;99.90
22249;DHT22;67538;52.180;5.646;2023-09-30T01:55:45;10.10;99.90
22249;DHT22;67538;52.180;5.646;2023-09-30T01:58:15;10.00;99.90
22249;DHT22;67538;52.180;5.646;2023-09-30T02:00:42;10.00;99.90
22249;DHT22;67538;52.180;5.646;2023-09-30T02:03:09;9.90;99.90
22249;DHT22;67538;52.180;5.646;2023-09-30T02:05:38;9.90;99.90
22249;DHT22;67538;52.180;5.646;2023-09-30T02:08:05;10.00;99.90
22249;DHT22;67538;52.180;5.646;2023-09-30T02:10:33;10.00;99.90
22249;DHT22;67538;52.180;5.646;2023-09-30T02:13:00;10.00;99.90
22249;DHT22;67538;52.180;5.646;2023-09-30T02:15:29;9.90;99.90
22249;DHT22;67538;52.180;5.646;2023-09-30T02:17:56;9.80;99.90
22249;DHT22;67538;52.180;5.646;2023-09-30T02:20:23;9.80;99.90
22249;DHT22;67538;52.180;5.646;2023-09-30T02:22:51;9.70;99.90
22249;DHT22;67538;52.180;5.646;2023-09-30T02:25:19;9.70;99.90
22249;DHT22;67538;52.180;5.646;2023-09-30T02:27:49;9.70;99.90
22249;DHT22;67538;52.180;5.646;2023-09-30T02:30:16;9.70;99.90
22249;DHT22;67538;52.180;5.646;2023-09-30T02:32:45;9.70;99.90
22249;DHT22;67538;52.180;5.646;2023-09-30T02:35:12;9.60;99.90
22249;DHT22;67538;52.180;5.646;2023-09-30T02:37:41;9.60;99.90
22249;DHT22;67538;52.180;5.646;2023-09-30T02:40:08;9.40;99.90
22249;DHT22;67538;52.180;5.646;2023-09-30T02:42:36;9.50;99.90
22249;DHT22;67538;52.180;5.646;2023-09-30T02:45:04;9.60;99.90
22249;DHT22;67538;52.180;5.646;2023-09-30T02:47:32;9.60;99.90
22249;DHT22;67538;52.180;5.646;2023-09-30T02:50:01;9.70;99.90
22249;DHT22;67538;52.180;5.646;2023-09-30T02:52:28;9.70;99.90
22249;DHT22;67538;52.180;5.646;2023-09-30T02:54:55;9.70;99.90
22249;DHT22;67538;52.180;5.646;2023-09-30T02:57:23;9.70;99.90
22249;DHT22;67538;52.180;5.646;2023-09-30T02:59:51;9.70;99.90
22249;DHT22;67538;52.180;5.646;2023-09-30T03:02:19;9.70;99.90
22249;DHT22;67538;52.180;5.646;2023-09-30T03:04:48;9.60;99.90
22249;DHT22;67538;52.180;5.646;2023-09-30T03:07:18;9.50;99.90
22249;DHT22;67538;52.180;5.646;2023-09-30T03:09:46;9.50;99.90
22249;DHT22;67538;52.180;5.646;2023-09-30T03:12:13;9.40;99.90
22249;DHT22;67538;52.180;5.646;2023-09-30T03:14:40;9.40;99.90
22249;DHT22;67538;52.180;5.646;2023-09-30T03:17:08;9.50;99.90
22249;DHT22;67538;52.180;5.646;2023-09-30T03:19:37;9.50;99.90
22249;DHT22;67538;52.180;5.646;2023-09-30T03:22:05;9.60;99.90
22249;DHT22;67538;52.180;5.646;2023-09-30T03:24:38;9.60;99.90
22249;DHT22;67538;52.180;5.646;2023-09-30T03:27:06;9.60;99.90
22249;DHT22;67538;52.180;5.646;2023-09-30T03:29:35;9.60;99.90
22249;DHT22;67538;52.180;5.646;2023-09-30T03:32:04;9.70;99.90
22249;DHT22;67538;52.180;5.646;2023-09-30T03:34:31;9.60;99.90
22249;DHT22;67538;52.180;5.646;2023-09-30T03:36:58;9.60;99.90
22249;DHT22;67538;52.180;5.646;2023-09-30T03:39:25;9.60;99.90
22249;DHT22;67538;52.180;5.646;2023-09-30T03:41:55;9.60;99.90
22249;DHT22;67538;52.180;5.646;2023-09-30T03:44:23;9.50;99.90
22249;DHT22;67538;52.180;5.646;2023-09-30T03:46:51;9.60;99.90
22249;DHT22;67538;52.180;5.646;2023-09-30T03:49:18;9.50;99.90
22249;DHT22;67538;52.180;5.646;2023-09-30T03:51:46;9.60;99.90
22249;DHT22;67538;52.180;5.646;2023-09-30T03:54:16;9.60;99.90
22249;DHT22;67538;52.180;5.646;2023-09-30T03:56:44;9.70;99.90
22249;DHT22;67538;52.180;5.646;2023-09-30T03:59:13;9.60;99.90
22249;DHT22;67538;52.180;5.646;2023-09-30T04:01:41;9.60;99.90
22249;DHT22;67538;52.180;5.646;2023-09-30T04:04:09;9.60;99.90
22249;DHT22;67538;52.180;5.646;2023-09-30T04:06:37;9.70;99.90
22249;DHT22;67538;52.180;5.646;2023-09-30T04:09:05;9.70;99.90
22249;DHT22;67538;52.180;5.646;2023-09-30T04:11:36;9.60;99.90
22249;DHT22;67538;52.180;5.646;2023-09-30T04:14:04;9.60;99.90
22249;DHT22;67538;52.180;5.646;2023-09-30T04:16:34;9.70;99.90
22249;DHT22;67538;52.180;5.646;2023-09-30T04:19:01;9.70;99.90
22249;DHT22;67538;52.180;5.646;2023-09-30T04:21:28;9.70;99.90
22249;DHT22;67538;52.180;5.646;2023-09-30T04:23:59;9.70;99.90
22249;DHT22;67538;52.180;5.646;2023-09-30T04:26:26;9.60;99.90
22249;DHT22;67538;52.180;5.646;2023-09-30T04:28:53;9.60;99.90
22249;DHT22;67538;52.180;5.646;2023-09-30T04:31:21;9.50;99.90
22249;DHT22;67538;52.180;5.646;2023-09-30T04:33:50;9.50;99.90
22249;DHT22;67538;52.180;5.646;2023-09-30T04:36:18;9.50;99.90
22249;DHT22;67538;52.180;5.646;2023-09-30T04:38:46;9.50;99.90
22249;DHT22;67538;52.180;5.646;2023-09-30T04:41:14;9.60;99.90
22249;DHT22;67538;52.180;5.646;2023-09-30T04:43:41;9.60;99.90
22249;DHT22;67538;52.180;5.646;2023-09-30T04:46:09;9.60;99.90
22249;DHT22;67538;52.180;5.646;2023-09-30T04:48:38;9.70;99.90
22249;DHT22;67538;52.180;5.646;2023-09-30T04:51:08;9.60;99.90
22249;DHT22;67538;52.180;5.646;2023-09-30T04:53:37;9.70;99.90
22249;DHT22;67538;52.180;5.646;2023-09-30T04:56:05;9.70;99.90
22249;DHT22;67538;52.180;5.646;2023-09-30T04:58:32;9.70;99.90
22249;DHT22;67538;52.180;5.646;2023-09-30T05:00:59;9.60;99.90
22249;DHT22;67538;52.180;5.646;2023-09-30T05:03:26;9.60;99.90
22249;DHT22;67538;52.180;5.646;2023-09-30T05:05:54;9.60;99.90
22249;DHT22;67538;52.180;5.646;2023-09-30T05:08:25;9.60;99.90
22249;DHT22;67538;52.180;5.646;2023-09-30T05:10:54;9.60;99.90
22249;DHT22;67538;52.180;5.646;2023-09-30T05:13:22;9.70;99.90
22249;DHT22;67538;52.180;5.646;2023-09-30T05:15:50;9.70;99.90
22249;DHT22;67538;52.180;5.646;2023-09-30T05:18:17;9.70;99.90
22249;DHT22;67538;52.180;5.646;2023-09-30T05:20:44;9.70;99.90
22249;DHT22;67538;52.180;5.646;2023-09-30T05:23:11;9.70;99.90
22249;DHT22;67538;52.180;5.646;2023-09-30T05:25:41;9.70;99.90
22249;DHT22;67538;52.180;5.646;2023-09-30T05:28:09;9.60;99.90
22249;DHT22;67538;52.180;5.646;2023-09-30T05:30:37;9.60;99.90
22249;DHT22;67538;52.180;5.646;2023-09-30T05:33:04;9.60;99.90
22249;DHT22;67538;52.180;5.646;2023-09-30T05:35:31;9.50;99.90
22249;DHT22;67538;52.180;5.646;2023-09-30T05:37:59;9.40;99.90
22249;DHT22;67538;52.180;5.646;2023-09-30T05:40:26;9.30;99.90
22249;DHT22;67538;52.180;5.646;2023-09-30T05:42:57;9.30;99.90
22249;DHT22;67538;52.180;5.646;2023-09-30T05:45:25;9.20;99.90
22249;DHT22;67538;52.180;5.646;2023-09-30T05:47:53;9.30;99.90
22249;DHT22;67538;52.180;5.646;2023-09-30T05:50:22;9.40;99.90
22249;DHT22;67538;52.180;5.646;2023-09-30T05:52:52;9.50;99.90
22249;DHT22;67538;52.180;5.646;2023-09-30T05:55:19;9.50;99.90
22249;DHT22;67538;52.180;5.646;2023-09-30T05:57:47;9.50;99.90
22249;DHT22;67538;52.180;5.646;2023-09-30T06:00:17;9.50;99.90
22249;DHT22;67538;52.180;5.646;2023-09-30T06:02:48;9.60;99.90
22249;DHT22;67538;52.180;5.646;2023-09-30T06:05:15;9.50;99.90
22249;DHT22;67538;52.180;5.646;2023-09-30T06:07:44;9.50;99.90
22249;DHT22;67538;52.180;5.646;2023-09-30T06:10:12;9.40;99.90
22249;DHT22;67538;52.180;5.646;2023-09-30T06:12:44;9.40;99.90
22249;DHT22;67538;52.180;5.646;2023-09-30T06:15:12;9.50;99.90
22249;DHT22;67538;52.180;5.646;2023-09-30T06:17:41;9.50;99.90
22249;DHT22;67538;52.180;5.646;2023-09-30T06:20:09;9.70;99.90
22249;DHT22;67538;52.180;5.646;2023-09-30T06:22:42;9.80;99.90
22249;DHT22;67538;52.180;5.646;2023-09-30T06:25:11;9.90;99.90
22249;DHT22;67538;52.180;5.646;2023-09-30T06:27:38;10.00;99.90
22249;DHT22;67538;52.180;5.646;2023-09-30T06:30:06;10.10;99.90
22249;DHT22;67538;52.180;5.646;2023-09-30T06:32:34;10.30;99.90
22249;DHT22;67538;52.180;5.646;2023-09-30T06:35:04;10.40;99.90
22249;DHT22;67538;52.180;5.646;2023-09-30T06:37:32;10.50;99.90
22249;DHT22;67538;52.180;5.646;2023-09-30T06:39:59;10.70;99.90
22249;DHT22;67538;52.180;5.646;2023-09-30T06:42:29;10.70;99.90
22249;DHT22;67538;52.180;5.646;2023-09-30T06:44:56;10.70;99.90
22249;DHT22;67538;52.180;5.646;2023-09-30T06:47:24;10.90;99.90
22249;DHT22;67538;52.180;5.646;2023-09-30T06:49:51;11.00;99.90
22249;DHT22;67538;52.180;5.646;2023-09-30T06:52:20;11.20;99.90
22249;DHT22;67538;52.180;5.646;2023-09-30T06:54:47;11.40;99.90
22249;DHT22;67538;52.180;5.646;2023-09-30T06:57:14;11.70;99.90
22249;DHT22;67538;52.180;5.646;2023-09-30T06:59:41;12.30;99.90
22249;DHT22;67538;52.180;5.646;2023-09-30T07:02:08;12.60;99.90
22249;DHT22;67538;52.180;5.646;2023-09-30T07:04:35;13.20;99.90
22249;DHT22;67538;52.180;5.646;2023-09-30T07:07:02;13.30;99.90
22249;DHT22;67538;52.180;5.646;2023-09-30T07:09:31;13.70;99.90
22249;DHT22;67538;52.180;5.646;2023-09-30T07:11:58;14.20;99.90
22249;DHT22;67538;52.180;5.646;2023-09-30T07:14:25;14.30;99.90
22249;DHT22;67538;52.180;5.646;2023-09-30T07:16:52;14.30;99.90
22249;DHT22;67538;52.180;5.646;2023-09-30T07:19:20;14.20;99.90
22249;DHT22;67538;52.180;5.646;2023-09-30T07:21:47;14.50;99.90
22249;DHT22;67538;52.180;5.646;2023-09-30T07:24:14;15.30;99.90
22249;DHT22;67538;52.180;5.646;2023-09-30T07:26:43;16.40;99.90
22249;DHT22;67538;52.180;5.646;2023-09-30T07:29:10;18.10;99.90
22249;DHT22;67538;52.180;5.646;2023-09-30T07:31:37;19.20;99.90
22249;DHT22;67538;52.180;5.646;2023-09-30T07:34:04;18.70;99.90
22249;DHT22;67538;52.180;5.646;2023-09-30T07:36:32;18.00;99.90
22249;DHT22;67538;52.180;5.646;2023-09-30T07:38:59;17.70;99.90
22249;DHT22;67538;52.180;5.646;2023-09-30T07:41:27;17.60;99.90
22249;DHT22;67538;52.180;5.646;2023-09-30T07:43:56;17.10;99.90
22249;DHT22;67538;52.180;5.646;2023-09-30T07:46:23;16.70;99.90
22249;DHT22;67538;52.180;5.646;2023-09-30T07:48:50;16.80;99.90
22249;DHT22;67538;52.180;5.646;2023-09-30T07:51:18;17.10;99.90
22249;DHT22;67538;52.180;5.646;2023-09-30T07:53:45;17.80;99.90
22249;DHT22;67538;52.180;5.646;2023-09-30T07:56:13;18.50;99.90
22249;DHT22;67538;52.180;5.646;2023-09-30T07:58:40;18.50;99.90
22249;DHT22;67538;52.180;5.646;2023-09-30T08:01:09;18.60;99.90
22249;DHT22;67538;52.180;5.646;2023-09-30T08:03:36;18.30;99.90
22249;DHT22;67538;52.180;5.646;2023-09-30T08:06:03;18.90;99.90
22249;DHT22;67538;52.180;5.646;2023-09-30T08:08:30;20.10;99.90
22249;DHT22;67538;52.180;5.646;2023-09-30T08:10:58;20.60;99.90
22249;DHT22;67538;52.180;5.646;2023-09-30T08:13:25;20.10;99.90
22249;DHT22;67538;52.180;5.646;2023-09-30T08:15:53;19.10;99.90
22249;DHT22;67538;52.180;5.646;2023-09-30T08:18:21;19.00;99.90
22249;DHT22;67538;52.180;5.646;2023-09-30T08:20:48;19.20;99.90
22249;DHT22;67538;52.180;5.646;2023-09-30T08:23:16;19.20;99.90
22249;DHT22;67538;52.180;5.646;2023-09-30T08:25:43;19.60;99.90
22249;DHT22;67538;52.180;5.646;2023-09-30T08:28:10;19.50;99.90
22249;DHT22;67538;52.180;5.646;2023-09-30T08:30:37;19.00;99.90
22249;DHT22;67538;52.180;5.646;2023-09-30T08:33:05;18.50;99.90
22249;DHT22;67538;52.180;5.646;2023-09-30T08:35:36;18.30;99.90
22249;DHT22;67538;52.180;5.646;2023-09-30T08:38:04;18.30;99.90
22249;DHT22;67538;52.180;5.646;2023-09-30T08:40:31;18.40;99.90
22249;DHT22;67538;52.180;5.646;2023-09-30T08:42:58;18.20;99.90
22249;DHT22;67538;52.180;5.646;2023-09-30T08:45:28;18.20;99.90
22249;DHT22;67538;52.180;5.646;2023-09-30T08:47:57;18.60;99.90
22249;DHT22;67538;52.180;5.646;2023-09-30T08:50:30;18.70;99.90
22249;DHT22;67538;52.180;5.646;2023-09-30T08:53:00;18.70;99.90
22249;DHT22;67538;52.180;5.646;2023-09-30T08:55:29;18.70;99.90
22249;DHT22;67538;52.180;5.646;2023-09-30T08:57:58;18.80;99.90
22249;DHT22;67538;52.180;5.646;2023-09-30T09:00:26;19.10;99.90
22249;DHT22;67538;52.180;5.646;2023-09-30T09:02:53;19.10;99.90
22249;DHT22;67538;52.180;5.646;2023-09-30T09:05:20;18.70;99.90
22249;DHT22;67538;52.180;5.646;2023-09-30T09:07:47;19.00;99.90
22249;DHT22;67538;52.180;5.646;2023-09-30T09:10:17;19.30;99.90
22249;DHT22;67538;52.180;5.646;2023-09-30T09:12:55;19.30;99.90
22249;DHT22;67538;52.180;5.646;2023-09-30T09:15:24;19.10;99.90
22249;DHT22;67538;52.180;5.646;2023-09-30T09:17:52;19.10;99.90
22249;DHT22;67538;52.180;5.646;2023-09-30T09:20:21;18.80;99.90
22249;DHT22;67538;52.180;5.646;2023-09-30T09:22:50;18.80;99.90
22249;DHT22;67538;52.180;5.646;2023-09-30T09:25:21;19.00;99.90
22249;DHT22;67538;52.180;5.646;2023-09-30T09:27:49;19.20;99.90
22249;DHT22;67538;52.180;5.646;2023-09-30T09:30:17;19.20;99.90
22249;DHT22;67538;52.180;5.646;2023-09-30T09:32:59;18.90;99.90
22249;DHT22;67538;52.180;5.646;2023-09-30T09:35:27;18.40;99.90
22249;DHT22;67538;52.180;5.646;2023-09-30T09:37:57;18.40;99.90
22249;DHT22;67538;52.180;5.646;2023-09-30T09:40:27;18.40;99.90
22249;DHT22;67538;52.180;5.646;2023-09-30T09:42:55;18.40;99.90
22249;DHT22;67538;52.180;5.646;2023-09-30T09:45:24;18.20;99.90
22249;DHT22;67538;52.180;5.646;2023-09-30T09:47:52;18.10;99.90
22249;DHT22;67538;52.180;5.646;2023-09-30T09:50:21;18.20;99.90
22249;DHT22;67538;52.180;5.646;2023-09-30T09:52:49;18.30;99.90
22249;DHT22;67538;52.180;5.646;2023-09-30T09:55:17;18.30;99.90
22249;DHT22;67538;52.180;5.646;2023-09-30T09:57:46;18.40;99.90
22249;DHT22;67538;52.180;5.646;2023-09-30T10:00:16;18.60;99.90
22249;DHT22;67538;52.180;5.646;2023-09-30T10:02:44;18.60;99.90
22249;DHT22;67538;52.180;5.646;2023-09-30T10:05:12;18.40;99.90
22249;DHT22;67538;52.180;5.646;2023-09-30T10:07:44;18.70;99.90
22249;DHT22;67538;52.180;5.646;2023-09-30T10:10:15;18.80;99.90
22249;DHT22;67538;52.180;5.646;2023-09-30T10:12:43;18.60;99.90
22249;DHT22;67538;52.180;5.646;2023-09-30T10:15:39;18.50;99.90
22249;DHT22;67538;52.180;5.646;2023-09-30T10:18:10;18.60;99.90
22249;DHT22;67538;52.180;5.646;2023-09-30T10:20:38;18.80;99.90
22249;DHT22;67538;52.180;5.646;2023-09-30T10:23:26;18.80;99.90
22249;DHT22;67538;52.180;5.646;2023-09-30T10:26:14;18.80;99.90
22249;DHT22;67538;52.180;5.646;2023-09-30T10:28:44;18.90;99.90
22249;DHT22;67538;52.180;5.646;2023-09-30T10:31:15;19.00;99.90
22249;DHT22;67538;52.180;5.646;2023-09-30T10:34:17;19.20;99.90
22249;DHT22;67538;52.180;5.646;2023-09-30T10:36:46;19.00;99.90
22249;DHT22;67538;52.180;5.646;2023-09-30T10:39:14;19.00;99.90
22249;DHT22;67538;52.180;5.646;2023-09-30T10:41:50;19.10;99.90
22249;DHT22;67538;52.180;5.646;2023-09-30T10:44:32;19.10;99.90
22249;DHT22;67538;52.180;5.646;2023-09-30T10:47:35;18.90;99.90
22249;DHT22;67538;52.180;5.646;2023-09-30T10:50:04;18.90;99.90
22249;DHT22;67538;52.180;5.646;2023-09-30T10:52:51;19.00;99.90
22249;DHT22;67538;52.180;5.646;2023-09-30T10:55:19;19.00;99.90
22249;DHT22;67538;52.180;5.646;2023-09-30T10:57:50;19.10;99.90
22249;DHT22;67538;52.180;5.646;2023-09-30T11:00:18;19.10;99.90
22249;DHT22;67538;52.180;5.646;2023-09-30T11:02:53;19.10;99.90
22249;DHT22;67538;52.180;5.646;2023-09-30T11:05:20;19.00;99.90
22249;DHT22;67538;52.180;5.646;2023-09-30T11:07:48;19.10;99.90
22249;DHT22;67538;52.180;5.646;2023-09-30T11:10:17;19.20;99.90
22249;DHT22;67538;52.180;5.646;2023-09-30T11:12:55;19.10;99.90
22249;DHT22;67538;52.180;5.646;2023-09-30T11:15:22;19.20;99.90
22249;DHT22;67538;52.180;5.646;2023-09-30T11:17:49;19.10;99.90
22249;DHT22;67538;52.180;5.646;2023-09-30T11:20:18;18.80;99.90
22249;DHT22;67538;52.180;5.646;2023-09-30T11:22:47;18.60;99.90
22249;DHT22;67538;52.180;5.646;2023-09-30T11:25:17;18.60;99.90
22249;DHT22;67538;52.180;5.646;2023-09-30T11:27:45;18.80;99.90
22249;DHT22;67538;52.180;5.646;2023-09-30T11:30:13;18.90;99.90
22249;DHT22;67538;52.180;5.646;2023-09-30T11:32:40;19.00;99.90
22249;DHT22;67538;52.180;5.646;2023-09-30T11:35:23;19.30;99.90
22249;DHT22;67538;52.180;5.646;2023-09-30T11:37:51;19.40;99.90
22249;DHT22;67538;52.180;5.646;2023-09-30T11:40:19;19.50;99.90
22249;DHT22;67538;52.180;5.646;2023-09-30T11:43:07;19.80;99.90
22249;DHT22;67538;52.180;5.646;2023-09-30T11:45:34;19.70;99.90
22249;DHT22;67538;52.180;5.646;2023-09-30T11:48:16;19.80;99.90
22249;DHT22;67538;52.180;5.646;2023-09-30T11:50:47;19.80;99.90
22249;DHT22;67538;52.180;5.646;2023-09-30T11:53:17;19.60;99.90
22249;DHT22;67538;52.180;5.646;2023-09-30T11:55:46;19.30;99.90
22249;DHT22;67538;52.180;5.646;2023-09-30T11:58:13;19.10;99.90
22249;DHT22;67538;52.180;5.646;2023-09-30T12:00:44;18.90;99.90
22249;DHT22;67538;52.180;5.646;2023-09-30T12:03:12;18.70;99.90
22249;DHT22;67538;52.180;5.646;2023-09-30T12:05:39;18.70;99.90
22249;DHT22;67538;52.180;5.646;2023-09-30T12:08:07;18.60;99.90
22249;DHT22;67538;52.180;5.646;2023-09-30T12:10:36;18.60;99.90
22249;DHT22;67538;52.180;5.646;2023-09-30T12:13:04;18.60;99.90
22249;DHT22;67538;52.180;5.646;2023-09-30T12:15:31;18.80;99.90
22249;DHT22;67538;52.180;5.646;2023-09-30T12:17:58;18.80;99.90
22249;DHT22;67538;52.180;5.646;2023-09-30T12:20:25;18.80;99.90
22249;DHT22;67538;52.180;5.646;2023-09-30T12:22:53;18.80;99.90
22249;DHT22;67538;52.180;5.646;2023-09-30T12:25:21;18.80;99.90
22249;DHT22;67538;52.180;5.646;2023-09-30T12:27:49;18.90;99.90
22249;DHT22;67538;52.180;5.646;2023-09-30T12:30:17;18.90;99.90
22249;DHT22;67538;52.180;5.646;2023-09-30T12:32:45;19.00;99.90
22249;DHT22;67538;52.180;5.646;2023-09-30T12:35:13;19.10;99.90
22249;DHT22;67538;52.180;5.646;2023-09-30T12:37:40;19.30;99.90
22249;DHT22;67538;52.180;5.646;2023-09-30T12:40:09;19.40;99.90
22249;DHT22;67538;52.180;5.646;2023-09-30T12:42:38;19.50;99.90
22249;DHT22;67538;52.180;5.646;2023-09-30T12:45:06;19.40;99.90
22249;DHT22;67538;52.180;5.646;2023-09-30T12:47:33;19.40;99.90
22249;DHT22;67538;52.180;5.646;2023-09-30T12:50:00;19.30;99.90
22249;DHT22;67538;52.180;5.646;2023-09-30T12:52:27;19.30;99.90
22249;DHT22;67538;52.180;5.646;2023-09-30T12:54:56;19.20;99.90
22249;DHT22;67538;52.180;5.646;2023-09-30T12:57:23;19.10;99.90
22249;DHT22;67538;52.180;5.646;2023-09-30T12:59:51;19.00;99.90
22249;DHT22;67538;52.180;5.646;2023-09-30T13:02:19;18.80;99.90
22249;DHT22;67538;52.180;5.646;2023-09-30T13:04:46;18.70;99.90
22249;DHT22;67538;52.180;5.646;2023-09-30T13:07:14;18.80;99.90
22249;DHT22;67538;52.180;5.646;2023-09-30T13:09:42;18.80;99.90
22249;DHT22;67538;52.180;5.646;2023-09-30T13:12:09;18.90;99.90
22249;DHT22;67538;52.180;5.646;2023-09-30T13:14:37;19.00;99.90
22249;DHT22;67538;52.180;5.646;2023-09-30T13:17:06;19.10;99.90
22249;DHT22;67538;52.180;5.646;2023-09-30T13:19:33;19.30;99.90
22249;DHT22;67538;52.180;5.646;2023-09-30T13:22:00;19.50;99.90
22249;DHT22;67538;52.180;5.646;2023-09-30T13:24:27;19.40;99.90
22249;DHT22;67538;52.180;5.646;2023-09-30T13:26:54;19.40;99.90
22249;DHT22;67538;52.180;5.646;2023-09-30T13:29:22;19.50;99.90
22249;DHT22;67538;52.180;5.646;2023-09-30T13:31:49;19.50;99.90
22249;DHT22;67538;52.180;5.646;2023-09-30T13:34:17;19.50;99.90
22249;DHT22;67538;52.180;5.646;2023-09-30T13:36:45;19.70;99.90
22249;DHT22;67538;52.180;5.646;2023-09-30T13:39:12;19.80;99.90
22249;DHT22;67538;52.180;5.646;2023-09-30T13:41:39;19.70;99.90
22249;DHT22;67538;52.180;5.646;2023-09-30T13:44:07;19.50;99.90
22249;DHT22;67538;52.180;5.646;2023-09-30T13:46:34;19.40;99.90
22249;DHT22;67538;52.180;5.646;2023-09-30T13:49:01;19.40;99.90
22249;DHT22;67538;52.180;5.646;2023-09-30T13:51:30;19.40;99.90
22249;DHT22;67538;52.180;5.646;2023-09-30T13:53:58;19.20;99.90
22249;DHT22;67538;52.180;5.646;2023-09-30T13:56:25;19.20;99.90
22249;DHT22;67538;52.180;5.646;2023-09-30T13:58:53;19.20;99.90
22249;DHT22;67538;52.180;5.646;2023-09-30T14:01:20;19.20;99.90
22249;DHT22;67538;52.180;5.646;2023-09-30T14:03:48;19.30;99.90
22249;DHT22;67538;52.180;5.646;2023-09-30T14:06:15;19.40;99.90
22249;DHT22;67538;52.180;5.646;2023-09-30T14:08:43;19.50;99.90
22249;DHT22;67538;52.180;5.646;2023-09-30T14:11:11;19.50;99.90
22249;DHT22;67538;52.180;5.646;2023-09-30T14:13:39;19.40;99.90
22249;DHT22;67538;52.180;5.646;2023-09-30T14:16:06;19.30;99.90
22249;DHT22;67538;52.180;5.646;2023-09-30T14:18:33;19.30;99.90
22249;DHT22;67538;52.180;5.646;2023-09-30T14:21:02;19.20;99.90
22249;DHT22;67538;52.180;5.646;2023-09-30T14:23:29;19.20;99.90
22249;DHT22;67538;52.180;5.646;2023-09-30T14:25:58;19.00;99.90
22249;DHT22;67538;52.180;5.646;2023-09-30T14:28:25;18.90;99.90
22249;DHT22;67538;52.180;5.646;2023-09-30T14:30:52;18.80;99.90
22249;DHT22;67538;52.180;5.646;2023-09-30T14:33:19;18.80;99.90
22249;DHT22;67538;52.180;5.646;2023-09-30T14:35:46;19.00;99.90
22249;DHT22;67538;52.180;5.646;2023-09-30T14:38:14;19.00;99.90
22249;DHT22;67538;52.180;5.646;2023-09-30T14:40:41;19.00;99.90
22249;DHT22;67538;52.180;5.646;2023-09-30T14:43:09;19.00;99.90
22249;DHT22;67538;52.180;5.646;2023-09-30T14:45:40;19.00;99.90
22249;DHT22;67538;52.180;5.646;2023-09-30T14:48:08;18.90;99.90
22249;DHT22;67538;52.180;5.646;2023-09-30T14:50:36;18.90;99.90
22249;DHT22;67538;52.180;5.646;2023-09-30T14:53:03;18.80;99.90
22249;DHT22;67538;52.180;5.646;2023-09-30T14:55:31;18.80;99.90
22249;DHT22;67538;52.180;5.646;2023-09-30T14:57:58;18.70;99.90
22249;DHT22;67538;52.180;5.646;2023-09-30T15:00:27;18.70;99.90
22249;DHT22;67538;52.180;5.646;2023-09-30T15:02:54;18.60;99.90
22249;DHT22;67538;52.180;5.646;2023-09-30T15:05:21;18.50;99.90
22249;DHT22;67538;52.180;5.646;2023-09-30T15:07:49;18.50;99.90
22249;DHT22;67538;52.180;5.646;2023-09-30T15:10:16;18.50;99.90
22249;DHT22;67538;52.180;5.646;2023-09-30T15:12:44;18.60;99.90
22249;DHT22;67538;52.180;5.646;2023-09-30T15:15:12;18.60;99.90
22249;DHT22;67538;52.180;5.646;2023-09-30T15:17:41;18.60;99.90
22249;DHT22;67538;52.180;5.646;2023-09-30T15:20:09;18.60;99.90
22249;DHT22;67538;52.180;5.646;2023-09-30T15:22:36;18.70;99.90
22249;DHT22;67538;52.180;5.646;2023-09-30T15:25:04;18.70;99.90
22249;DHT22;67538;52.180;5.646;2023-09-30T15:27:31;18.70;99.90
22249;DHT22;67538;52.180;5.646;2023-09-30T15:29:59;18.70;99.90
22249;DHT22;67538;52.180;5.646;2023-09-30T15:32:26;18.70;99.90
22249;DHT22;67538;52.180;5.646;2023-09-30T15:34:55;18.70;99.90
22249;DHT22;67538;52.180;5.646;2023-09-30T15:37:22;18.70;99.90
22249;DHT22;67538;52.180;5.646;2023-09-30T15:39:49;18.80;99.90
22249;DHT22;67538;52.180;5.646;2023-09-30T15:42:16;18.80;99.90